Time;durP1;ratioP1;P1;durP2;ratioP2;P2;SDS_P1;SDS_P2;PMS_P1;PMS_P2;Temp;Humidity;BMP_temperature;BMP_pressure;BME280_temperature;BME280_humidity;BME280_pressure;Samples;Min_cycle;Max_cycle;Signal;HPM_P1;HPM_P2
2022/06/21 00:00:43;;;;;;;4.83;4.40;;;26.70;93.00;;;;;;6252946;22;20705;-92
2022/06/21 00:03:12;;;;;;;5.40;4.90;;;26.60;92.80;;;;;;6279579;22;20867;-93
2022/06/21 00:05:42;;;;;;;8.97;5.33;;;26.60;93.00;;;;;;6252516;22;20448;-94
2022/06/21 00:08:17;;;;;;;5.30;4.80;;;26.60;93.00;;;;;;6279864;22;20464;-91
2022/06/21 00:10:44;;;;;;;6.40;5.13;;;26.60;93.20;;;;;;6252784;22;20386;-92
2022/06/21 00:13:15;;;;;;;4.87;4.47;;;26.60;93.30;;;;;;6252634;22;20402;-92
2022/06/21 00:15:43;;;;;;;7.23;5.60;;;26.60;93.40;;;;;;6283097;22;20377;-91
2022/06/21 00:18:15;;;;;;;5.50;4.67;;;26.60;93.60;;;;;;6254441;22;20406;-91
2022/06/21 00:20:42;;;;;;;8.60;5.40;;;26.50;93.70;;;;;;6253139;22;20392;-92
2022/06/21 00:23:17;;;;;;;5.67;5.20;;;26.50;93.80;;;;;;6253866;22;20401;-94
2022/06/21 00:25:45;;;;;;;6.67;5.50;;;26.50;94.00;;;;;;6254981;22;20405;-92
2022/06/21 00:28:10;;;;;;;9.23;5.50;;;26.50;94.50;;;;;;6253528;22;20402;-94
2022/06/21 00:30:36;;;;;;;5.80;5.20;;;26.40;94.30;;;;;;6253125;22;20401;-91
2022/06/21 00:33:02;;;;;;;7.77;5.17;;;26.40;94.50;;;;;;6279602;22;20635;-92
2022/06/21 00:35:27;;;;;;;6.07;5.50;;;26.40;94.60;;;;;;6253279;22;20165;-94
2022/06/21 00:37:54;;;;;;;6.80;6.13;;;26.40;94.70;;;;;;6252718;22;20180;-92
2022/06/21 00:40:33;;;;;;;7.30;5.57;;;26.40;94.90;;;;;;6253534;22;20428;-93
2022/06/21 00:43:19;;;;;;;6.13;5.53;;;26.30;95.10;;;;;;6252881;22;20421;-93
2022/06/21 00:45:48;;;;;;;7.10;6.40;;;26.30;95.30;;;;;;6257184;22;20492;-90
2022/06/21 00:48:20;;;;;;;6.47;5.87;;;26.20;95.40;;;;;;6281862;22;20463;-93
2022/06/21 00:50:50;;;;;;;8.80;6.20;;;26.20;95.50;;;;;;6280832;22;20370;-92
2022/06/21 00:53:36;;;;;;;6.77;6.07;;;26.20;95.60;;;;;;6253525;22;20877;-92
2022/06/21 00:56:11;;;;;;;7.33;5.97;;;26.20;95.80;;;;;;6280497;22;20397;-93
2022/06/21 00:58:37;;;;;;;6.97;6.20;;;26.20;96.00;;;;;;6254158;22;20486;-92
2022/06/21 01:01:18;;;;;;;7.17;5.87;;;26.10;96.20;;;;;;6265100;22;20401;-92
2022/06/21 01:03:47;;;;;;;6.67;5.97;;;26.10;96.50;;;;;;6291207;22;20184;-93
2022/06/21 01:06:22;;;;;;;8.83;6.33;;;26.00;96.60;;;;;;6251699;22;20499;-91
2022/06/21 01:08:59;;;;;;;6.47;5.87;;;26.00;96.80;;;;;;6255382;22;20395;-94
2022/06/21 01:11:31;;;;;;;7.87;6.53;;;26.00;97.30;;;;;;6252149;22;20389;-93
2022/06/21 01:13:59;;;;;;;6.83;6.17;;;26.00;97.20;;;;;;6252587;22;20480;-94
2022/06/21 01:16:27;;;;;;;7.53;5.40;;;26.00;97.30;;;;;;6252162;22;20373;-92
2022/06/21 01:18:53;;;;;;;8.30;5.73;;;26.00;97.50;;;;;;6252287;22;20402;-93
2022/06/21 01:21:21;;;;;;;7.87;6.30;;;26.00;97.70;;;;;;6252167;22;20396;-93
2022/06/21 01:24:13;;;;;;;7.60;6.23;;;26.00;97.80;;;;;;6252074;22;20431;-92
2022/06/21 01:27:03;;;;;;;7.13;6.20;;;25.90;98.00;;;;;;6253537;22;20417;-93
2022/06/21 01:29:32;;;;;;;8.20;6.07;;;25.90;98.30;;;;;;6280541;22;20389;-93
2022/06/21 01:32:04;;;;;;;7.73;6.17;;;25.90;98.50;;;;;;6253479;22;20413;-94
2022/06/21 01:34:30;;;;;;;7.87;6.37;;;25.90;98.60;;;;;;6255026;22;20745;-93
2022/06/21 01:37:10;;;;;;;9.10;6.43;;;25.80;98.80;;;;;;6256368;22;20494;-92
2022/06/21 01:39:41;;;;;;;8.23;6.40;;;25.80;98.90;;;;;;6258153;22;20390;-92
2022/06/21 01:42:14;;;;;;;7.00;6.33;;;25.70;98.90;;;;;;6256467;22;20401;-92
2022/06/21 01:44:46;;;;;;;6.40;5.80;;;25.60;99.10;;;;;;6256760;22;20460;-94
2022/06/21 01:47:24;;;;;;;7.00;6.30;;;25.60;99.30;;;;;;6255733;22;20507;-94
2022/06/21 01:49:56;;;;;;;6.87;5.60;;;25.60;99.40;;;;;;6256789;22;20768;-92
2022/06/21 01:52:26;;;;;;;6.03;4.97;;;25.50;99.80;;;;;;6256927;22;20408;-93
2022/06/21 01:54:59;;;;;;;8.73;5.60;;;25.50;99.90;;;;;;6284058;22;20414;-92
2022/06/21 01:57:27;;;;;;;6.50;5.20;;;25.50;99.90;;;;;;6258386;22;20471;-92
2022/06/21 01:59:53;;;;;;;9.20;5.07;;;25.50;99.90;;;;;;6289287;22;20393;-92
2022/06/21 02:02:30;;;;;;;6.80;5.63;;;25.50;99.80;;;;;;6253590;22;20413;-91
2022/06/21 02:05:01;;;;;;;5.70;5.10;;;25.40;99.90;;;;;;6280933;22;20436;-91
2022/06/21 02:07:38;;;;;;;5.83;5.23;;;25.40;99.90;;;;;;6253408;22;20397;-92
2022/06/21 02:10:09;;;;;;;4.80;4.30;;;25.50;99.90;;;;;;6253795;22;20736;-92
2022/06/21 02:12:39;;;;;;;5.97;5.30;;;25.50;99.90;;;;;;6279910;22;20390;-93
2022/06/21 02:15:07;;;;;;;7.50;4.97;;;25.50;99.90;;;;;;6280247;22;20392;-93
2022/06/21 02:17:41;;;;;;;4.37;3.87;;;25.50;99.90;;;;;;6280636;22;20392;-94
2022/06/21 02:20:18;;;;;;;5.00;4.30;;;25.50;99.90;;;;;;6255728;22;20401;-92
2022/06/21 02:22:44;;;;;;;5.03;4.53;;;25.60;99.90;;;;;;6255252;22;20405;-92
2022/06/21 02:25:18;;;;;;;4.60;4.10;;;25.60;99.90;;;;;;6253732;22;20437;-93
2022/06/21 02:27:44;;;;;;;10.73;5.03;;;25.60;99.90;;;;;;6253379;22;20401;-93
2022/06/21 02:30:18;;;;;;;7.23;5.27;;;25.70;99.90;;;;;;6253954;22;20402;-93
2022/06/21 02:32:44;;;;;;;4.40;4.00;;;25.70;99.90;;;;;;6281403;22;20413;-91
2022/06/21 02:35:25;;;;;;;6.47;4.90;;;25.70;99.90;;;;;;6282820;22;20390;-93
2022/06/21 02:37:54;;;;;;;4.80;4.13;;;25.70;99.90;;;;;;6281990;22;20746;-92
2022/06/21 02:40:41;;;;;;;5.43;4.20;;;25.80;99.90;;;;;;6282605;22;20378;-93
2022/06/21 02:43:23;;;;;;;6.73;4.80;;;25.80;99.90;;;;;;6255203;22;20447;-92
2022/06/21 02:46:02;;;;;;;7.40;5.20;;;25.80;99.90;;;;;;6281971;22;20419;-91
2022/06/21 02:48:33;;;;;;;6.00;5.23;;;25.80;99.90;;;;;;6298475;22;20427;-92
2022/06/21 02:51:05;;;;;;;6.00;4.00;;;25.70;99.90;;;;;;6292535;22;20354;-94
2022/06/21 02:53:36;;;;;;;10.90;4.93;;;25.70;99.90;;;;;;6260134;22;20464;-92
2022/06/21 02:56:22;;;;;;;6.00;4.30;;;25.70;99.90;;;;;;6253239;22;20392;-91
2022/06/21 02:58:51;;;;;;;4.73;4.27;;;25.60;99.90;;;;;;6280886;22;20385;-92
2022/06/21 03:01:31;;;;;;;7.03;3.90;;;25.60;99.90;;;;;;6254069;22;20467;-93
2022/06/21 03:03:58;;;;;;;8.93;4.83;;;25.60;99.90;;;;;;6280756;22;20491;-92
2022/06/21 03:06:26;;;;;;;5.20;4.20;;;25.60;99.90;;;;;;6253555;22;20387;-94
2022/06/21 03:08:57;;;;;;;6.77;4.43;;;25.50;99.90;;;;;;6253223;22;20781;-94
2022/06/21 03:11:27;;;;;;;6.77;4.43;;;25.50;99.80;;;;;;6280413;22;20501;-93
2022/06/21 03:13:54;;;;;;;4.90;4.27;;;25.50;99.50;;;;;;6253757;22;20408;-92
2022/06/21 03:16:22;;;;;;;5.77;4.37;;;25.50;99.20;;;;;;6280002;22;20693;-93
2022/06/21 03:18:54;;;;;;;4.70;3.90;;;25.50;99.20;;;;;;6280974;22;20380;-93
2022/06/21 03:21:31;;;;;;;4.33;3.93;;;25.40;99.10;;;;;;6254525;22;20385;-92
2022/06/21 03:23:59;;;;;;;5.57;3.90;;;25.40;99.00;;;;;;6254470;22;20914;-92
2022/06/21 03:26:27;;;;;;;5.30;3.73;;;25.40;98.80;;;;;;6282314;22;20377;-92
2022/06/21 03:28:53;;;;;;;4.53;3.77;;;25.40;99.50;;;;;;6293206;22;20384;-93
2022/06/21 03:31:30;;;;;;;4.80;4.37;;;25.40;99.00;;;;;;6252342;22;20391;-94
2022/06/21 03:34:03;;;;;;;4.10;3.60;;;25.40;98.50;;;;;;6256634;22;20421;-91
2022/06/21 03:36:30;;;;;;;6.07;3.30;;;25.40;98.50;;;;;;6257673;22;20419;-94
2022/06/21 03:39:03;;;;;;;7.47;3.70;;;25.40;98.10;;;;;;6279534;22;20443;-92
2022/06/21 03:41:44;;;;;;;3.70;3.10;;;25.40;97.90;;;;;;6254581;22;20451;-92
2022/06/21 03:44:37;;;;;;;5.43;3.77;;;25.40;97.90;;;;;;6256600;22;20496;-93
2022/06/21 03:47:14;;;;;;;3.93;3.23;;;25.40;98.30;;;;;;6252673;22;20444;-93
2022/06/21 03:49:48;;;;;;;4.77;3.03;;;25.40;97.90;;;;;;6279918;22;20412;-94
2022/06/21 03:52:41;;;;;;;3.60;3.20;;;25.30;97.80;;;;;;6252503;22;20543;-92
2022/06/21 03:55:43;;;;;;;5.23;3.07;;;25.30;97.90;;;;;;6278713;22;20718;-93
2022/06/21 03:58:28;;;;;;;4.17;3.30;;;25.30;97.80;;;;;;6252031;22;20405;-92
2022/06/21 04:01:21;;;;;;;4.33;3.40;;;25.30;97.60;;;;;;6251240;22;20385;-92
2022/06/21 04:03:53;;;;;;;15.93;9.47;;;25.30;97.90;;;;;;6250509;22;20437;-92
2022/06/21 04:06:45;;;;;;;4.43;3.60;;;25.30;97.90;;;;;;6278789;22;20376;-93
2022/06/21 04:09:26;;;;;;;5.33;3.40;;;25.30;97.60;;;;;;6247273;22;20409;-93
2022/06/21 04:12:09;;;;;;;4.47;4.07;;;25.30;97.50;;;;;;6251863;22;20413;-94
2022/06/21 04:14:48;;;;;;;10.10;3.47;;;25.30;97.60;;;;;;6278981;22;20380;-93
2022/06/21 04:17:25;;;;;;;4.97;3.57;;;25.20;97.60;;;;;;6252218;22;20405;-92
2022/06/21 04:20:09;;;;;;;5.27;3.03;;;25.30;98.00;;;;;;6251082;22;20454;-94
2022/06/21 04:22:48;;;;;;;4.13;3.00;;;25.20;97.60;;;;;;6278379;22;20393;-94
2022/06/21 04:25:29;;;;;;;4.60;2.97;;;25.30;97.70;;;;;;6279330;22;20432;-92
2022/06/21 04:28:20;;;;;;;3.03;2.77;;;25.20;97.50;;;;;;6283246;22;20396;-94
2022/06/21 04:31:04;;;;;;;3.53;3.20;;;25.20;97.50;;;;;;6283667;22;20472;-94
2022/06/21 04:33:38;;;;;;;5.97;3.00;;;25.20;97.60;;;;;;6279671;22;20405;-94
2022/06/21 04:36:24;;;;;;;3.40;2.97;;;25.20;97.40;;;;;;6252341;22;20416;-92
2022/06/21 04:39:15;;;;;;;4.73;3.17;;;25.20;97.60;;;;;;6250155;22;20399;-93
2022/06/21 04:42:05;;;;;;;3.97;3.60;;;25.20;97.50;;;;;;6250457;22;20885;-92
2022/06/21 04:44:39;;;;;;;4.57;3.23;;;25.20;97.30;;;;;;6250110;22;20815;-92
2022/06/21 04:47:11;;;;;;;4.00;3.50;;;25.10;97.30;;;;;;6248745;22;20954;-93
2022/06/21 04:49:58;;;;;;;3.97;3.30;;;25.10;97.40;;;;;;6249118;22;20458;-93
2022/06/21 04:52:37;;;;;;;3.23;2.93;;;25.10;97.50;;;;;;6251309;22;20713;-92
2022/06/21 04:55:04;;;;;;;3.63;3.33;;;25.10;97.40;;;;;;6257222;22;20442;-92
2022/06/21 04:57:31;;;;;;;9.03;3.80;;;25.10;97.40;;;;;;6252690;22;20787;-93
2022/06/21 05:00:05;;;;;;;4.73;3.57;;;25.10;97.40;;;;;;6280409;22;20403;-93
2022/06/21 05:02:50;;;;;;;3.30;2.73;;;25.10;97.60;;;;;;6255191;22;20546;-93
2022/06/21 05:05:20;;;;;;;4.03;3.40;;;25.10;97.60;;;;;;6255577;22;20452;-93
2022/06/21 05:07:50;;;;;;;3.53;3.13;;;25.10;97.50;;;;;;6254123;22;20399;-92
2022/06/21 05:10:22;;;;;;;4.97;3.30;;;25.10;97.50;;;;;;6249354;22;20404;-92
2022/06/21 05:12:51;;;;;;;5.20;3.53;;;25.10;97.50;;;;;;6276124;22;20388;-92
2022/06/21 05:15:39;;;;;;;4.07;3.00;;;25.10;97.50;;;;;;6276490;22;20768;-94
2022/06/21 05:18:20;;;;;;;3.40;3.10;;;25.00;97.90;;;;;;6278589;22;20444;-93
2022/06/21 05:20:58;;;;;;;4.17;3.30;;;25.00;97.60;;;;;;6251752;22;20486;-93
2022/06/21 05:23:24;;;;;;;14.53;9.37;;;25.00;97.50;;;;;;6279253;22;20522;-92
2022/06/21 05:25:51;;;;;;;15.77;10.10;;;25.00;97.50;;;;;;6251998;22;20392;-92
2022/06/21 05:28:22;;;;;;;7.03;5.10;;;25.00;97.60;;;;;;6252498;22;20401;-92
2022/06/21 05:30:56;;;;;;;5.57;3.47;;;25.00;97.60;;;;;;6252555;22;20389;-94
2022/06/21 05:33:28;;;;;;;3.70;3.37;;;25.00;97.70;;;;;;6253173;22;20412;-93
2022/06/21 05:35:54;;;;;;;4.53;4.10;;;25.10;97.60;;;;;;6280244;22;20365;-92
2022/06/21 05:38:25;;;;;;;3.50;3.20;;;25.10;97.60;;;;;;6281869;22;20855;-93
2022/06/21 05:40:58;;;;;;;5.10;4.13;;;25.20;97.60;;;;;;6281465;22;20377;-92
2022/06/21 05:43:36;;;;;;;5.20;3.50;;;25.20;97.80;;;;;;6252324;22;20409;-93
2022/06/21 05:46:24;;;;;;;4.07;3.07;;;25.20;97.60;;;;;;6280990;22;20716;-92
2022/06/21 05:48:53;;;;;;;5.33;3.10;;;25.30;97.70;;;;;;6253064;22;20795;-92
2022/06/21 05:51:32;;;;;;;4.70;3.83;;;25.30;97.60;;;;;;6253672;22;20870;-93
2022/06/21 05:54:12;;;;;;;4.50;3.80;;;25.30;97.40;;;;;;6253176;22;20385;-94
2022/06/21 05:56:39;;;;;;;6.43;4.30;;;25.30;97.60;;;;;;6252336;22;20413;-92
2022/06/21 05:59:13;;;;;;;3.13;2.80;;;25.30;97.30;;;;;;6255534;22;20393;-92
2022/06/21 06:01:56;;;;;;;4.73;3.23;;;25.30;97.10;;;;;;6262456;22;20403;-93
2022/06/21 06:04:47;;;;;;;3.60;3.27;;;25.30;97.20;;;;;;6253019;22;20479;-94
2022/06/21 06:07:38;;;;;;;3.83;3.30;;;25.20;97.30;;;;;;6238300;22;20401;-93
2022/06/21 06:10:06;;;;;;;6.00;3.03;;;25.20;97.20;;;;;;6277267;22;20383;-92
2022/06/21 06:12:37;;;;;;;3.80;3.40;;;25.20;97.30;;;;;;6251047;22;20409;-93
2022/06/21 06:15:20;;;;;;;5.67;3.30;;;25.20;97.50;;;;;;6252702;22;20751;-92
2022/06/21 06:18:06;;;;;;;6.10;3.40;;;25.20;97.50;;;;;;6252670;22;20408;-93
2022/06/21 06:20:31;;;;;;;4.70;3.63;;;25.10;97.30;;;;;;6251728;22;20404;-92
2022/06/21 06:23:18;;;;;;;4.50;3.00;;;25.10;97.50;;;;;;6254420;22;20415;-93
2022/06/21 06:25:50;;;;;;;5.00;3.53;;;25.10;97.50;;;;;;6279634;22;20183;-92
2022/06/21 06:28:45;;;;;;;3.67;3.37;;;25.10;97.40;;;;;;6268435;22;20404;-92
2022/06/21 06:31:23;;;;;;;3.80;3.10;;;25.10;97.40;;;;;;6248985;22;20388;-92
2022/06/21 06:34:02;;;;;;;4.50;3.40;;;25.10;97.40;;;;;;6250434;22;20395;-91
2022/06/21 06:36:42;;;;;;;4.47;3.50;;;25.10;97.50;;;;;;6252445;22;20427;-92
2022/06/21 06:39:27;;;;;;;4.60;3.23;;;25.10;97.80;;;;;;6253695;22;20719;-91
2022/06/21 06:42:14;;;;;;;3.83;3.37;;;25.20;97.90;;;;;;6249490;22;20877;-91
2022/06/21 06:44:51;;;;;;;5.23;3.50;;;25.20;97.80;;;;;;6275259;22;20433;-91
2022/06/21 06:47:31;;;;;;;7.50;3.00;;;25.30;97.70;;;;;;6247780;22;20440;-93
2022/06/21 06:50:03;;;;;;;3.17;2.77;;;25.30;97.20;;;;;;6250222;22;20440;-96
2022/06/21 06:52:35;;;;;;;5.67;3.03;;;25.30;97.10;;;;;;6250099;22;20480;-91
2022/06/21 06:55:11;;;;;;;11.40;3.43;;;25.30;97.20;;;;;;6252039;22;20487;-95
2022/06/21 06:57:48;;;;;;;3.73;2.43;;;25.30;97.00;;;;;;6280675;22;20791;-95
2022/06/21 07:00:32;;;;;;;170.97;85.93;;;25.30;97.00;;;;;;6260443;22;20404;-91
2022/06/21 07:03:14;;;;;;;30.97;15.63;;;25.30;97.00;;;;;;6253903;22;20404;-96
2022/06/21 07:06:05;;;;;;;107.50;58.30;;;25.30;97.00;;;;;;6251115;22;20513;-92
2022/06/21 07:08:44;;;;;;;10.00;7.63;;;25.30;97.00;;;;;;6276456;22;20396;-92
2022/06/21 07:11:38;;;;;;;4.27;3.60;;;25.40;96.80;;;;;;6251390;22;20385;-91
2022/06/21 07:14:13;;;;;;;3.37;3.07;;;25.50;96.70;;;;;;6212901;22;20454;-91
2022/06/21 07:16:40;;;;;;;6.67;3.20;;;25.50;96.70;;;;;;6251501;22;20443;-91
2022/06/21 07:19:09;;;;;;;3.70;2.73;;;25.40;96.60;;;;;;6283586;22;20467;-96
2022/06/21 07:21:36;;;;;;;3.73;2.43;;;25.40;96.50;;;;;;6255757;22;20408;-96
2022/06/21 07:24:02;;;;;;;3.20;2.60;;;25.50;96.10;;;;;;6282422;22;20433;-96
2022/06/21 07:26:51;;;;;;;8.43;2.43;;;25.50;96.40;;;;;;6282181;22;20396;-91
2022/06/21 07:29:26;;;;;;;2.53;2.33;;;25.50;96.30;;;;;;6286972;22;20401;-95
2022/06/21 07:32:05;;;;;;;5.90;2.33;;;25.50;96.30;;;;;;6257276;22;20408;-96
2022/06/21 07:34:53;;;;;;;7.00;2.30;;;25.50;96.00;;;;;;6255563;22;20468;-96
2022/06/21 07:37:20;;;;;;;2.40;2.20;;;25.50;96.00;;;;;;6254236;22;20709;-92
2022/06/21 07:39:57;;;;;;;2.20;1.93;;;25.50;96.00;;;;;;6253642;22;20450;-96
2022/06/21 07:42:34;;;;;;;3.50;1.93;;;25.50;95.90;;;;;;6280533;22;20383;-91
2022/06/21 07:45:06;;;;;;;4.23;2.80;;;25.50;95.80;;;;;;6256434;22;20452;-91
2022/06/21 07:48:10;;;;;;;5.73;2.03;;;25.50;95.70;;;;;;6251967;22;20491;-96
2022/06/21 07:50:59;;;;;;;3.37;3.07;;;25.50;95.60;;;;;;6241425;22;20385;-91
2022/06/21 07:53:40;;;;;;;81.13;38.47;;;25.50;95.50;;;;;;6252800;22;20758;-90
2022/06/21 07:56:14;;;;;;;9.87;7.43;;;25.50;95.20;;;;;;6251360;22;20404;-96
2022/06/21 07:59:01;;;;;;;6.60;4.27;;;25.50;94.70;;;;;;6277693;22;20803;-91
2022/06/21 08:07:20;;;;;;;2.50;2.07;;;25.60;94.00;;;;;;6239879;22;20468;-96
2022/06/21 08:09:51;;;;;;;2.07;1.97;;;25.70;94.90;;;;;;6257943;22;20400;-96
2022/06/21 08:12:18;;;;;;;2.30;2.00;;;25.70;93.90;;;;;;6260688;22;20408;-91
2022/06/21 08:14:44;;;;;;;3.53;2.50;;;25.80;93.70;;;;;;6259233;22;20774;-96
2022/06/21 08:17:16;;;;;;;4.30;2.43;;;25.80;94.60;;;;;;6258081;22;20404;-95
2022/06/21 08:19:55;;;;;;;9.53;2.50;;;25.80;94.60;;;;;;6255721;22;20413;-94
2022/06/21 08:22:33;;;;;;;3.50;2.27;;;25.80;93.30;;;;;;6279024;22;20451;-91
2022/06/21 08:25:18;;;;;;;4.53;2.13;;;25.80;93.50;;;;;;6272339;22;20945;-95
2022/06/21 08:28:01;;;;;;;2.50;2.30;;;25.90;94.20;;;;;;6250942;22;20413;-91
2022/06/21 08:30:42;;;;;;;2.87;2.67;;;26.00;94.10;;;;;;6246922;22;20464;-91
2022/06/21 08:33:16;;;;;;;6.00;2.50;;;26.00;93.90;;;;;;6275342;22;20507;-96
2022/06/21 08:35:47;;;;;;;4.80;3.80;;;26.00;94.10;;;;;;6258763;22;20396;-96
2022/06/21 08:38:35;;;;;;;21.50;14.77;;;26.10;93.80;;;;;;6252503;22;20431;-96
2022/06/21 08:44:21;;;;;;;3.07;2.50;;;26.20;94.10;;;;;;6277647;22;20486;-96
2022/06/21 08:46:54;;;;;;;17.97;3.10;;;26.20;93.90;;;;;;6254125;22;20440;-96
2022/06/21 08:49:41;;;;;;;3.27;2.37;;;26.20;94.00;;;;;;6262017;22;20423;-96
2022/06/21 08:52:40;;;;;;;2.20;2.00;;;26.30;94.00;;;;;;6254245;22;20863;-96
2022/06/21 08:55:40;;;;;;;2.80;2.60;;;26.30;93.70;;;;;;6256111;22;20401;-96
2022/06/21 08:58:15;;;;;;;2.50;2.30;;;26.40;93.20;;;;;;6259533;22;20462;-96
2022/06/21 09:00:51;;;;;;;2.37;2.23;;;26.40;93.60;;;;;;6280129;22;20362;-96
2022/06/21 09:03:29;;;;;;;3.60;2.40;;;26.40;93.20;;;;;;6257434;22;20404;-91
2022/06/21 09:06:16;;;;;;;2.87;2.30;;;26.60;93.60;;;;;;6270895;22;20481;-95
2022/06/21 09:09:14;;;;;;;3.63;2.10;;;26.60;92.90;;;;;;6248930;22;20480;-91
2022/06/21 09:11:43;;;;;;;2.47;2.27;;;26.80;91.80;;;;;;6255966;22;20398;-92
2022/06/21 09:14:33;;;;;;;2.37;2.17;;;26.90;92.20;;;;;;6282725;22;20388;-95
2022/06/21 09:17:16;;;;;;;3.23;1.70;;;27.00;91.60;;;;;;6253238;22;20417;-92
2022/06/21 09:20:00;;;;;;;4.10;2.70;;;27.10;91.60;;;;;;6252277;22;20857;-96
2022/06/21 09:22:32;;;;;;;2.13;1.93;;;27.20;91.50;;;;;;6249777;22;20402;-95
2022/06/21 09:25:24;;;;;;;2.30;1.93;;;27.30;90.90;;;;;;6256529;22;20459;-96
2022/06/21 09:28:11;;;;;;;3.20;2.23;;;27.40;91.10;;;;;;6284306;22;20393;-96
2022/06/21 09:30:45;;;;;;;2.37;2.17;;;27.40;90.50;;;;;;6237296;22;20846;-92
2022/06/21 09:33:43;;;;;;;10.60;2.53;;;27.50;91.40;;;;;;6275216;22;20405;-91
2022/06/21 09:36:32;;;;;;;3.60;2.37;;;27.60;90.20;;;;;;6254173;22;20413;-96
2022/06/21 09:39:04;;;;;;;1.80;1.70;;;27.60;90.20;;;;;;6250882;22;20480;-92
2022/06/21 09:41:57;;;;;;;8.50;2.60;;;27.70;89.30;;;;;;6275769;22;20397;-92
2022/06/21 09:44:55;;;;;;;2.10;1.90;;;27.70;87.80;;;;;;6248511;22;20448;-91
2022/06/21 09:47:45;;;;;;;2.60;2.03;;;27.80;87.80;;;;;;6254054;22;20452;-96
2022/06/21 09:50:27;;;;;;;3.53;2.20;;;27.80;87.50;;;;;;6287206;22;20374;-92
2022/06/21 09:53:21;;;;;;;2.47;2.27;;;27.90;87.50;;;;;;6249956;22;20414;-93
2022/06/21 09:56:07;;;;;;;5.00;2.30;;;27.90;88.20;;;;;;6254608;22;20397;-92
2022/06/21 09:58:56;;;;;;;2.83;2.30;;;27.90;88.20;;;;;;6250989;22;20409;-93
2022/06/21 10:01:28;;;;;;;2.30;2.10;;;27.90;87.20;;;;;;6277361;22;20466;-91
2022/06/21 10:04:09;;;;;;;2.30;1.93;;;28.10;87.30;;;;;;6254220;22;20429;-91
2022/06/21 10:06:42;;;;;;;2.40;2.10;;;28.10;87.60;;;;;;6282736;22;20397;-92
2022/06/21 10:09:27;;;;;;;3.23;2.30;;;28.20;86.80;;;;;;6251502;22;20398;-94
2022/06/21 10:12:05;;;;;;;2.10;1.90;;;28.20;87.50;;;;;;6249999;22;20484;-91
2022/06/21 10:14:59;;;;;;;2.50;2.30;;;28.20;87.50;;;;;;6248632;22;20454;-91
2022/06/21 10:17:38;;;;;;;2.80;2.60;;;28.20;86.70;;;;;;6248861;22;20624;-94
2022/06/21 10:20:42;;;;;;;2.70;1.93;;;28.30;88.50;;;;;;6250662;22;20417;-94
2022/06/21 10:23:34;;;;;;;2.43;2.00;;;28.30;88.20;;;;;;6251266;22;20726;-91
2022/06/21 10:26:21;;;;;;;3.30;2.20;;;28.20;90.30;;;;;;6273696;22;20423;-91
2022/06/21 10:29:05;;;;;;;12.17;2.00;;;28.20;89.40;;;;;;6247964;22;20799;-91
2022/06/21 10:32:00;;;;;;;2.63;2.23;;;28.20;90.40;;;;;;6249194;22;20783;-94
2022/06/21 10:34:44;;;;;;;5.50;2.00;;;28.10;90.00;;;;;;6245411;22;20999;-91
2022/06/21 10:37:13;;;;;;;2.73;2.50;;;28.10;89.30;;;;;;6247555;22;20413;-94
2022/06/21 10:39:41;;;;;;;2.80;2.60;;;28.00;90.30;;;;;;6248703;22;20451;-95
2022/06/21 10:45:52;;;;;;;5.47;2.57;;;28.00;89.40;;;;;;6275566;22;20534;-93
2022/06/21 10:48:33;;;;;;;8.03;3.10;;;28.00;90.50;;;;;;6253714;23;20450;-89
2022/06/21 10:51:25;;;;;;;4.53;3.20;;;28.00;89.50;;;;;;6238799;23;20402;-89
2022/06/21 10:54:30;;;;;;;5.37;2.80;;;28.00;90.00;;;;;;6244907;23;20385;-93
2022/06/21 10:57:10;;;;;;;4.40;3.40;;;27.90;90.20;;;;;;6239744;23;20985;-89
2022/06/21 11:03:12;;;;;;;6.57;2.37;;;27.90;90.20;;;;;;6189413;23;20758;-88
2022/06/21 11:05:56;;;;;;;2.37;2.03;;;27.90;90.60;;;;;;6247979;23;20529;-92
2022/06/21 11:08:22;;;;;;;2.23;2.10;;;27.80;90.70;;;;;;6241069;23;20784;-94
2022/06/21 11:10:56;;;;;;;3.77;2.07;;;27.80;90.30;;;;;;6243234;23;20366;-90
2022/06/21 11:13:41;;;;;;;2.83;2.50;;;27.80;91.00;;;;;;6243310;23;20177;-92
2022/06/21 11:16:29;;;;;;;2.93;2.23;;;27.70;90.20;;;;;;6245094;23;20378;-89
2022/06/21 11:19:03;;;;;;;3.17;2.70;;;27.70;90.00;;;;;;6255564;23;20770;-93
2022/06/21 11:21:29;;;;;;;5.90;2.97;;;27.70;90.90;;;;;;6245030;23;20396;-94
2022/06/21 11:24:11;;;;;;;8.43;3.13;;;27.70;87.90;;;;;;6241548;23;20922;-93
2022/06/21 11:27:11;;;;;;;4.27;3.10;;;27.80;88.10;;;;;;6243516;23;20185;-92
2022/06/21 11:29:47;;;;;;;4.10;3.13;;;27.80;86.70;;;;;;6248720;23;20394;-94
2022/06/21 11:32:37;;;;;;;3.07;2.70;;;27.80;89.60;;;;;;6246252;23;20403;-93
2022/06/21 11:35:30;;;;;;;3.50;2.77;;;27.80;90.50;;;;;;6244791;23;21046;-95
2022/06/21 11:38:16;;;;;;;3.20;2.20;;;27.70;88.00;;;;;;6246732;23;20449;-92
2022/06/21 11:40:48;;;;;;;2.23;2.03;;;27.70;85.90;;;;;;6247548;23;20887;-90
2022/06/21 11:43:30;;;;;;;2.50;2.30;;;27.80;83.50;;;;;;6247734;23;20498;-88
2022/06/21 11:46:07;;;;;;;2.37;2.17;;;27.80;86.50;;;;;;6241340;23;20430;-88
2022/06/21 11:48:58;;;;;;;2.73;1.97;;;27.90;81.80;;;;;;6243537;23;20446;-90
2022/06/21 11:52:21;;;;;;;5.43;2.03;;;27.80;84.70;;;;;;6248031;23;20433;-89
2022/06/21 11:55:12;;;;;;;6.00;2.43;;;27.80;86.00;;;;;;6166105;23;20432;-90
2022/06/21 11:58:00;;;;;;;3.83;2.10;;;27.80;86.80;;;;;;6184433;23;20415;-87
2022/06/21 12:00:38;;;;;;;2.40;2.00;;;27.80;83.50;;;;;;6249295;22;20414;-88
2022/06/21 12:03:10;;;;;;;2.00;1.90;;;27.90;87.40;;;;;;6258656;23;20410;-90
2022/06/21 12:05:56;;;;;;;2.13;1.90;;;27.90;82.70;;;;;;6253161;23;20439;-88
2022/06/21 12:08:32;;;;;;;2.90;2.70;;;27.90;86.00;;;;;;6247024;23;20401;-92
2022/06/21 12:11:15;;;;;;;7.83;2.10;;;27.90;79.30;;;;;;6242884;23;20428;-88
2022/06/21 12:14:02;;;;;;;1.80;1.70;;;28.00;84.30;;;;;;6244312;23;20405;-93
2022/06/21 12:16:51;;;;;;;1.80;1.60;;;27.90;88.60;;;;;;6240642;23;20778;-88
2022/06/21 12:19:21;;;;;;;3.87;2.30;;;27.90;84.70;;;;;;6240729;22;20375;-87
2022/06/21 12:21:54;;;;;;;1.90;1.77;;;27.80;85.70;;;;;;6246310;23;20697;-91
2022/06/21 12:24:25;;;;;;;2.30;1.67;;;27.90;85.10;;;;;;6235476;23;20481;-90
2022/06/21 12:26:52;;;;;;;2.00;1.70;;;27.80;86.00;;;;;;6235457;23;20488;-87
2022/06/21 12:29:20;;;;;;;1.80;1.70;;;27.80;90.30;;;;;;6237602;23;20386;-88
2022/06/21 12:31:51;;;;;;;1.93;1.70;;;27.70;89.30;;;;;;6237840;23;20851;-86
2022/06/21 12:34:43;;;;;;;3.40;1.70;;;27.70;90.60;;;;;;6240300;23;20387;-88
2022/06/21 12:37:20;;;;;;;3.23;1.80;;;27.70;90.70;;;;;;6246057;23;20438;-88
2022/06/21 12:39:49;;;;;;;2.47;2.00;;;27.70;89.80;;;;;;6245121;23;20453;-89
2022/06/21 12:42:39;;;;;;;2.00;1.80;;;27.80;84.20;;;;;;6252639;23;20398;-87
2022/06/21 12:45:16;;;;;;;1.60;1.50;;;27.70;90.10;;;;;;6243438;23;20514;-90
2022/06/21 12:48:05;;;;;;;2.37;1.60;;;27.60;90.80;;;;;;6239600;23;20448;-87
2022/06/21 12:50:53;;;;;;;2.10;1.93;;;27.60;90.10;;;;;;6242738;23;20785;-89
2022/06/21 12:53:40;;;;;;;2.93;1.80;;;27.70;88.60;;;;;;6241614;23;20394;-88
2022/06/21 12:56:39;;;;;;;2.93;1.70;;;27.60;90.00;;;;;;6240084;23;20407;-90
2022/06/21 12:59:31;;;;;;;3.50;2.00;;;27.60;89.50;;;;;;6243282;23;20779;-88
2022/06/21 13:02:11;;;;;;;2.50;2.03;;;27.70;81.50;;;;;;6245563;23;20402;-89
2022/06/21 13:04:56;;;;;;;1.57;1.47;;;27.70;80.70;;;;;;6239502;23;20439;-87
2022/06/21 13:07:47;;;;;;;2.73;2.33;;;27.70;87.30;;;;;;6237497;23;20422;-90
2022/06/21 13:10:52;;;;;;;2.10;1.90;;;27.80;83.30;;;;;;6233648;22;20414;-90
2022/06/21 13:13:59;;;;;;;1.80;1.70;;;27.80;87.60;;;;;;6239262;23;20409;-88
2022/06/21 13:16:43;;;;;;;1.80;1.70;;;27.80;89.10;;;;;;6223262;23;20700;-89
2022/06/21 13:19:24;;;;;;;2.80;1.97;;;27.80;85.60;;;;;;6236970;23;20947;-90
2022/06/21 13:22:31;;;;;;;1.57;1.47;;;27.90;80.10;;;;;;6234356;23;20504;-90
2022/06/21 13:25:12;;;;;;;2.77;1.90;;;28.00;86.10;;;;;;6204913;23;20743;-92
2022/06/21 13:28:14;;;;;;;1.90;1.80;;;28.00;87.60;;;;;;6231514;23;20452;-87
2022/06/21 13:30:54;;;;;;;1.77;1.67;;;28.00;88.30;;;;;;6238465;23;20401;-91
2022/06/21 13:33:25;;;;;;;1.80;1.70;;;27.90;90.00;;;;;;6249275;23;20508;-89
2022/06/21 13:36:25;;;;;;;5.80;1.83;;;27.90;89.70;;;;;;6237298;23;20390;-92
2022/06/21 13:39:36;;;;;;;1.73;1.50;;;27.80;90.50;;;;;;6226000;22;20469;-88
2022/06/21 13:45:11;;;;;;;2.13;1.47;;;27.80;90.60;;;;;;6238733;23;20512;-94
2022/06/21 13:47:51;;;;;;;3.23;1.90;;;27.80;88.80;;;;;;6238917;23;20441;-93
2022/06/21 13:50:31;;;;;;;3.00;2.43;;;27.90;86.00;;;;;;6249175;23;20391;-93
2022/06/21 13:53:03;;;;;;;2.20;2.00;;;27.80;87.50;;;;;;6242724;23;20425;-92
2022/06/21 13:55:50;;;;;;;2.30;2.10;;;27.80;89.80;;;;;;6243496;23;20413;-94
2022/06/21 13:58:18;;;;;;;2.37;2.13;;;27.80;89.00;;;;;;6244563;23;20449;-93
2022/06/21 14:01:20;;;;;;;3.37;2.30;;;27.90;89.70;;;;;;6244543;23;20394;-92
2022/06/21 14:04:07;;;;;;;2.53;2.30;;;27.90;88.60;;;;;;6185108;23;20451;-93